Time;durP1;ratioP1;P1;durP2;ratioP2;P2;SDS_P1;SDS_P2;PMS_P1;PMS_P2;Temp;Humidity;BMP_temperature;BMP_pressure;BME280_temperature;BME280_humidity;BME280_pressure;Samples;Min_cycle;Max_cycle;Signal;HPM_P1;HPM_P2
2023/07/13 00:01:33;;;;;;;11.48;2.90;;;15.30;99.90;;;;;;4974731;28;20491;-75
2023/07/13 00:03:59;;;;;;;9.82;2.70;;;15.30;99.90;;;;;;4973467;28;20046;-75
2023/07/13 00:06:32;;;;;;;8.13;2.60;;;15.30;99.90;;;;;;4941553;28;20555;-76
2023/07/13 00:08:59;;;;;;;8.63;2.70;;;15.30;99.90;;;;;;4973574;28;20074;-75
2023/07/13 00:11:25;;;;;;;10.63;3.10;;;15.20;99.90;;;;;;4973299;28;20055;-75
2023/07/13 00:13:51;;;;;;;11.50;2.90;;;15.20;99.90;;;;;;4974772;28;20498;-76
2023/07/13 00:16:18;;;;;;;10.88;2.83;;;15.20;99.90;;;;;;4973228;28;20053;-76
2023/07/13 00:18:45;;;;;;;7.82;2.70;;;15.20;99.90;;;;;;4974631;28;20126;-76
2023/07/13 00:21:11;;;;;;;9.93;2.80;;;15.20;99.90;;;;;;4974411;28;20042;-75
2023/07/13 00:23:39;;;;;;;10.68;2.90;;;15.10;99.90;;;;;;4973383;28;20042;-76
2023/07/13 00:26:08;;;;;;;11.40;3.00;;;15.10;99.90;;;;;;4974381;28;20082;-74
2023/07/13 00:28:34;;;;;;;10.77;2.85;;;15.10;99.90;;;;;;4972780;28;20097;-75
2023/07/13 00:31:01;;;;;;;10.98;2.88;;;15.10;99.90;;;;;;4973223;28;20047;-75
2023/07/13 00:33:29;;;;;;;10.68;2.30;;;15.10;99.90;;;;;;4973321;28;20491;-76
2023/07/13 00:35:56;;;;;;;8.73;2.40;;;15.10;99.90;;;;;;4974227;28;20118;-76
2023/07/13 00:38:23;;;;;;;9.60;2.50;;;15.10;99.90;;;;;;4972942;28;20043;-75
2023/07/13 00:40:49;;;;;;;9.85;2.80;;;15.20;99.90;;;;;;4974167;28;20043;-76
2023/07/13 00:43:20;;;;;;;9.65;2.80;;;15.20;99.90;;;;;;4973211;28;20518;-75
2023/07/13 00:45:46;;;;;;;11.50;2.80;;;15.20;99.90;;;;;;4974225;28;20049;-75
2023/07/13 00:48:14;;;;;;;11.75;2.80;;;15.20;99.90;;;;;;4974312;28;20487;-76
2023/07/13 00:50:41;;;;;;;11.70;2.78;;;15.30;99.90;;;;;;4972959;28;20280;-75
2023/07/13 00:53:08;;;;;;;8.82;3.10;;;15.30;99.90;;;;;;4973150;28;20038;-75
2023/07/13 00:55:34;;;;;;;10.30;3.17;;;15.20;99.90;;;;;;4972897;28;20043;-75
2023/07/13 00:58:02;;;;;;;10.32;2.92;;;15.30;99.90;;;;;;4974035;28;20062;-75
2023/07/13 01:00:29;;;;;;;10.30;2.65;;;15.30;99.90;;;;;;4956911;28;20166;-76
2023/07/13 01:02:56;;;;;;;10.50;2.65;;;15.30;99.90;;;;;;4972891;28;20039;-75
2023/07/13 01:05:22;;;;;;;8.77;2.83;;;15.30;99.90;;;;;;4974283;28;20070;-76
2023/07/13 01:07:51;;;;;;;14.23;3.30;;;15.30;99.90;;;;;;4956791;28;20475;-75
2023/07/13 01:10:17;;;;;;;10.88;3.05;;;15.30;99.90;;;;;;4974204;28;20562;-75
2023/07/13 01:12:43;;;;;;;9.27;3.00;;;15.30;99.90;;;;;;4973752;28;20051;-75
2023/07/13 01:15:40;;;;;;;10.25;3.00;;;15.30;99.90;;;;;;4974178;28;20093;-76
2023/07/13 01:18:09;;;;;;;12.27;3.05;;;15.30;99.90;;;;;;4974213;28;20050;-75
2023/07/13 01:20:36;;;;;;;11.30;3.35;;;15.30;99.90;;;;;;4974191;28;20118;-76
2023/07/13 01:23:09;;;;;;;11.48;2.90;;;15.30;99.90;;;;;;4974133;28;20046;-75
2023/07/13 01:25:36;;;;;;;8.55;2.75;;;15.30;99.90;;;;;;4974056;28;20043;-75
2023/07/13 01:28:08;;;;;;;10.88;3.03;;;15.30;99.90;;;;;;4973710;28;20120;-76
2023/07/13 01:30:36;;;;;;;14.02;3.17;;;15.30;99.90;;;;;;4972505;28;20039;-75
2023/07/13 01:33:03;;;;;;;10.77;3.08;;;15.40;99.90;;;;;;4972802;28;20126;-75
2023/07/13 01:35:29;;;;;;;10.57;3.25;;;15.40;99.90;;;;;;4956974;28;20035;-75
2023/07/13 01:37:56;;;;;;;12.27;3.20;;;15.40;99.90;;;;;;4973631;28;20039;-75
2023/07/13 01:40:22;;;;;;;13.30;3.30;;;15.50;99.90;;;;;;4972579;28;20074;-75
2023/07/13 01:42:48;;;;;;;12.52;3.30;;;15.50;99.90;;;;;;4977465;28;20074;-74
2023/07/13 01:45:14;;;;;;;9.77;2.83;;;15.50;99.90;;;;;;4944079;28;20539;-75
2023/07/13 01:47:40;;;;;;;10.77;3.30;;;15.50;99.90;;;;;;4977283;28;20114;-75
2023/07/13 01:50:06;;;;;;;12.98;3.38;;;15.50;99.90;;;;;;4975825;28;20062;-76
2023/07/13 01:52:32;;;;;;;11.18;3.53;;;15.50;99.90;;;;;;4975745;28;20048;-75
2023/07/13 01:54:58;;;;;;;11.32;3.30;;;15.50;99.90;;;;;;4976807;28;20094;-76
2023/07/13 01:57:23;;;;;;;10.18;3.10;;;15.50;99.90;;;;;;4975747;28;20125;-74
2023/07/13 01:59:49;;;;;;;12.75;3.00;;;15.60;99.90;;;;;;4976917;28;20129;-75
2023/07/13 02:02:15;;;;;;;12.63;3.50;;;15.50;99.90;;;;;;4959356;28;20042;-75
2023/07/13 02:04:40;;;;;;;10.63;3.30;;;15.60;99.90;;;;;;4959428;28;20042;-75
2023/07/13 02:07:08;;;;;;;12.45;3.63;;;15.50;99.90;;;;;;4975426;28;20078;-75
2023/07/13 02:09:34;;;;;;;10.77;3.30;;;15.60;99.90;;;;;;4975452;28;20604;-74
2023/07/13 02:12:00;;;;;;;11.82;3.40;;;15.60;99.90;;;;;;4976405;28;20067;-75
2023/07/13 02:14:26;;;;;;;11.50;3.70;;;15.60;99.90;;;;;;4959320;28;20053;-76
2023/07/13 02:16:52;;;;;;;12.95;3.60;;;15.50;99.90;;;;;;4976515;28;20047;-75
2023/07/13 02:19:18;;;;;;;11.85;3.63;;;15.60;99.90;;;;;;4975221;28;20038;-75
2023/07/13 02:21:43;;;;;;;10.75;3.33;;;15.60;99.90;;;;;;4975229;28;20109;-75
2023/07/13 02:24:09;;;;;;;13.32;3.63;;;15.60;99.90;;;;;;4976714;28;20049;-74
2023/07/13 02:26:35;;;;;;;11.73;3.53;;;15.60;99.90;;;;;;4976406;28;20043;-74
2023/07/13 02:29:01;;;;;;;11.75;3.42;;;15.50;99.90;;;;;;4975085;28;20039;-74
2023/07/13 02:31:27;;;;;;;13.07;3.55;;;15.60;99.90;;;;;;4976543;28;20117;-74
2023/07/13 02:33:53;;;;;;;11.15;3.22;;;15.60;99.90;;;;;;4976520;28;20097;-75
2023/07/13 02:36:19;;;;;;;10.95;3.72;;;15.60;99.90;;;;;;4975227;28;20462;-75
2023/07/13 02:38:45;;;;;;;11.60;3.55;;;15.50;99.90;;;;;;4958784;28;20129;-74
2023/07/13 02:41:12;;;;;;;13.48;3.60;;;15.50;99.90;;;;;;4976100;28;20118;-76
2023/07/13 02:43:38;;;;;;;13.38;3.45;;;15.40;99.90;;;;;;4974785;28;20046;-75
2023/07/13 02:46:07;;;;;;;10.70;3.47;;;15.40;99.90;;;;;;4975112;28;20130;-75
2023/07/13 02:48:33;;;;;;;11.63;3.78;;;15.40;99.90;;;;;;4974916;28;20086;-75
2023/07/13 02:50:59;;;;;;;10.95;3.83;;;15.30;99.90;;;;;;4974609;28;20039;-75
2023/07/13 02:53:25;;;;;;;11.15;3.13;;;15.30;99.90;;;;;;4942579;28;20089;-75
2023/07/13 02:55:51;;;;;;;12.00;3.60;;;15.30;99.90;;;;;;4976065;28;20506;-75
2023/07/13 02:58:17;;;;;;;14.15;3.75;;;15.30;99.90;;;;;;4974798;28;20519;-75
2023/07/13 03:00:44;;;;;;;14.10;3.95;;;15.30;99.90;;;;;;4975969;28;20130;-75
2023/07/13 03:03:10;;;;;;;14.10;3.80;;;15.40;99.90;;;;;;4974804;28;20477;-75
2023/07/13 03:05:38;;;;;;;16.67;3.78;;;15.40;99.90;;;;;;4975902;28;20050;-75
2023/07/13 03:08:03;;;;;;;14.27;3.83;;;15.40;99.90;;;;;;4974537;28;20053;-76
2023/07/13 03:10:29;;;;;;;12.02;3.63;;;15.40;99.90;;;;;;4974536;28;20122;-76
2023/07/13 03:12:55;;;;;;;12.25;3.33;;;15.40;99.90;;;;;;4975329;28;20057;-75
2023/07/13 03:15:21;;;;;;;13.20;3.72;;;15.40;99.90;;;;;;4974504;28;20047;-75
2023/07/13 03:17:46;;;;;;;16.52;4.05;;;15.40;99.90;;;;;;4975687;28;20035;-75
2023/07/13 03:20:12;;;;;;;14.40;3.92;;;15.40;99.90;;;;;;4975406;28;20475;-75
2023/07/13 03:22:38;;;;;;;14.05;3.70;;;15.40;99.90;;;;;;4958075;28;20054;-75
2023/07/13 03:25:04;;;;;;;14.85;3.83;;;15.40;99.90;;;;;;4975226;28;20030;-75
2023/07/13 03:27:30;;;;;;;13.90;4.03;;;15.50;99.90;;;;;;4975424;28;20050;-76
2023/07/13 03:29:56;;;;;;;12.85;3.92;;;15.50;99.90;;;;;;4975321;28;20042;-76
2023/07/13 03:32:22;;;;;;;12.52;3.78;;;15.50;99.90;;;;;;4975057;28;20044;-75
2023/07/13 03:34:48;;;;;;;14.68;3.85;;;15.50;99.90;;;;;;4975358;28;20042;-75
2023/07/13 03:37:13;;;;;;;11.05;3.90;;;15.50;99.90;;;;;;4975092;28;20102;-74
2023/07/13 03:39:39;;;;;;;13.90;3.88;;;15.50;99.90;;;;;;4975339;28;20077;-74
2023/07/13 03:42:05;;;;;;;14.05;4.00;;;15.50;99.90;;;;;;4975145;28;20475;-75
2023/07/13 03:44:31;;;;;;;14.27;3.95;;;15.50;99.90;;;;;;4974026;28;20093;-74
2023/07/13 03:46:57;;;;;;;12.65;3.88;;;15.50;99.90;;;;;;4974870;28;20479;-74
2023/07/13 03:49:23;;;;;;;13.30;4.00;;;15.50;99.90;;;;;;4973683;28;20068;-75
2023/07/13 03:51:48;;;;;;;13.40;4.18;;;15.60;99.90;;;;;;4974715;28;20041;-75
2023/07/13 03:54:14;;;;;;;12.77;3.88;;;15.50;99.90;;;;;;4975024;28;20031;-75
2023/07/13 03:56:40;;;;;;;13.90;3.83;;;15.60;99.90;;;;;;4974702;28;20083;-75
2023/07/13 03:59:06;;;;;;;13.25;4.07;;;15.60;99.90;;;;;;4973383;28;20090;-75
2023/07/13 04:01:31;;;;;;;12.60;4.03;;;15.50;99.90;;;;;;4973358;28;20038;-75
2023/07/13 04:03:57;;;;;;;11.32;3.42;;;15.60;99.90;;;;;;4974449;28;20061;-75
2023/07/13 04:06:27;;;;;;;12.82;4.00;;;15.50;99.90;;;;;;4974665;28;20038;-75
2023/07/13 04:08:57;;;;;;;11.68;4.05;;;15.50;99.90;;;;;;4974581;28;20050;-74
2023/07/13 04:11:27;;;;;;;13.02;3.70;;;15.60;99.90;;;;;;4974375;28;20061;-74
2023/07/13 04:13:53;;;;;;;13.45;3.78;;;15.60;99.90;;;;;;4973237;28;20062;-75
2023/07/13 04:16:19;;;;;;;12.07;4.05;;;15.60;99.90;;;;;;4957544;28;20042;-74
2023/07/13 04:18:46;;;;;;;16.67;4.13;;;15.60;99.90;;;;;;4974676;28;20042;-75
2023/07/13 04:21:13;;;;;;;13.02;3.80;;;15.70;99.90;;;;;;4974712;28;20064;-75
2023/07/13 04:23:39;;;;;;;14.32;4.50;;;15.70;99.90;;;;;;4974693;28;20054;-75
2023/07/13 04:26:05;;;;;;;11.75;4.00;;;15.70;99.90;;;;;;4974639;28;20104;-75
2023/07/13 04:28:30;;;;;;;13.40;4.47;;;15.70;99.90;;;;;;4972963;28;20057;-75
2023/07/13 04:30:56;;;;;;;13.88;5.00;;;15.70;99.90;;;;;;4974258;28;20043;-75
2023/07/13 04:33:23;;;;;;;12.65;4.47;;;15.60;99.90;;;;;;4989645;28;20038;-74
2023/07/13 04:35:54;;;;;;;15.15;4.75;;;15.60;99.90;;;;;;4974612;28;20432;-74
2023/07/13 04:38:20;;;;;;;14.67;4.70;;;15.50;99.90;;;;;;4957735;28;20244;-74
2023/07/13 04:40:47;;;;;;;11.77;3.95;;;15.50;99.90;;;;;;4974509;28;20506;-74
2023/07/13 04:43:13;;;;;;;12.25;3.90;;;15.50;99.90;;;;;;4972942;28;20129;-75
2023/07/13 04:45:38;;;;;;;14.93;4.53;;;15.60;99.90;;;;;;4973256;28;20201;-75
2023/07/13 04:48:04;;;;;;;11.55;4.18;;;15.60;99.90;;;;;;4974360;28;20049;-75
2023/07/13 04:50:30;;;;;;;12.13;4.53;;;15.60;99.90;;;;;;4973157;28;20049;-75
2023/07/13 04:52:56;;;;;;;14.35;4.65;;;15.60;99.90;;;;;;4974374;28;20039;-75
2023/07/13 04:55:22;;;;;;;17.10;5.30;;;15.60;99.90;;;;;;4974280;28;20534;-75
2023/07/13 04:57:48;;;;;;;15.32;4.32;;;15.50;99.90;;;;;;4973102;28;20060;-75
2023/07/13 05:00:15;;;;;;;11.85;4.70;;;15.50;99.90;;;;;;4974269;28;20041;-74
2023/07/13 05:02:44;;;;;;;13.32;4.20;;;15.40;99.90;;;;;;4956967;28;20058;-75
2023/07/13 05:05:10;;;;;;;13.02;4.32;;;15.40;99.90;;;;;;4973986;28;20053;-74
2023/07/13 05:07:36;;;;;;;13.20;4.60;;;15.40;99.90;;;;;;4974214;28;20130;-75
2023/07/13 05:10:03;;;;;;;17.55;5.63;;;15.40;99.90;;;;;;4974250;28;20039;-75
2023/07/13 05:12:30;;;;;;;13.82;4.57;;;15.40;99.90;;;;;;4972599;28;20131;-75
2023/07/13 05:14:56;;;;;;;14.07;4.72;;;15.50;99.90;;;;;;4973887;28;20051;-74
2023/07/13 05:17:21;;;;;;;13.40;4.60;;;15.70;99.90;;;;;;4977428;28;20166;-74
2023/07/13 05:19:47;;;;;;;14.65;4.40;;;16.10;99.90;;;;;;4977844;28;20491;-74
2023/07/13 05:22:13;;;;;;;12.70;4.45;;;16.30;99.90;;;;;;4976253;28;20509;-74
2023/07/13 05:24:39;;;;;;;14.02;4.43;;;16.70;99.90;;;;;;4977746;28;20499;-74
2023/07/13 05:27:05;;;;;;;12.75;4.28;;;17.00;99.90;;;;;;4977358;28;20054;-75
2023/07/13 05:29:31;;;;;;;11.82;4.30;;;17.20;99.90;;;;;;4976098;28;20051;-75
2023/07/13 05:31:56;;;;;;;12.50;4.38;;;17.40;99.90;;;;;;4977614;28;20038;-74
2023/07/13 05:34:23;;;;;;;12.15;4.22;;;17.80;99.90;;;;;;4976431;28;20047;-73
2023/07/13 05:36:49;;;;;;;10.95;3.78;;;18.10;99.90;;;;;;4977853;28;20133;-74
2023/07/13 05:39:15;;;;;;;15.00;4.28;;;18.70;99.90;;;;;;4977554;28;20057;-74
2023/07/13 05:41:41;;;;;;;9.98;3.45;;;19.00;99.90;;;;;;4977800;28;20042;-73
2023/07/13 05:44:07;;;;;;;10.23;3.70;;;19.40;99.90;;;;;;4976334;28;20373;-73
2023/07/13 05:46:33;;;;;;;10.85;3.75;;;19.30;99.90;;;;;;4975895;28;20042;-74
2023/07/13 05:48:59;;;;;;;11.10;3.70;;;19.60;99.90;;;;;;4977013;28;20503;-75
2023/07/13 05:51:25;;;;;;;9.85;3.42;;;19.80;99.90;;;;;;4975994;28;20043;-73
2023/07/13 05:53:50;;;;;;;12.20;3.97;;;19.80;99.90;;;;;;4977317;28;20491;-74
2023/07/13 05:56:16;;;;;;;11.65;3.80;;;20.00;99.90;;;;;;4959682;28;20047;-73
2023/07/13 05:58:42;;;;;;;12.57;3.53;;;20.30;99.90;;;;;;4959711;28;20047;-73
2023/07/13 06:01:13;;;;;;;11.43;3.60;;;20.70;99.90;;;;;;4977369;28;20078;-72
2023/07/13 06:03:41;;;;;;;12.05;3.75;;;20.80;99.90;;;;;;4977410;28;20046;-74
2023/07/13 06:06:09;;;;;;;12.70;3.60;;;20.80;99.90;;;;;;4976883;28;20043;-74
2023/07/13 06:08:35;;;;;;;10.88;3.50;;;21.30;99.90;;;;;;4975595;28;20047;-73
2023/07/13 06:11:26;;;;;;;10.48;3.22;;;21.30;99.90;;;;;;4975926;28;20038;-74
2023/07/13 06:13:52;;;;;;;10.05;3.35;;;21.50;99.90;;;;;;4976655;28;20047;-74
2023/07/13 06:16:18;;;;;;;13.13;3.80;;;21.40;99.90;;;;;;4976202;28;20498;-74
2023/07/13 06:18:44;;;;;;;9.80;3.10;;;21.60;99.90;;;;;;4975788;28;20550;-74
2023/07/13 06:21:12;;;;;;;10.65;3.22;;;21.70;99.90;;;;;;4976932;28;20121;-74
2023/07/13 06:23:38;;;;;;;12.15;3.45;;;22.00;99.90;;;;;;4975473;28;20046;-74
2023/07/13 06:26:05;;;;;;;14.05;3.90;;;22.50;99.90;;;;;;4976808;28;20034;-74
2023/07/13 06:28:32;;;;;;;11.60;3.33;;;22.40;99.90;;;;;;4976239;28;20050;-74
2023/07/13 06:30:58;;;;;;;9.95;3.30;;;22.20;99.90;;;;;;4976985;28;20043;-74
2023/07/13 06:33:25;;;;;;;10.85;3.42;;;22.20;99.90;;;;;;4976441;28;20047;-76
2023/07/13 06:35:51;;;;;;;12.65;3.55;;;22.10;99.90;;;;;;4975108;28;20053;-75
2023/07/13 06:38:17;;;;;;;11.10;3.40;;;22.10;99.90;;;;;;4976190;28;20042;-74
2023/07/13 06:40:43;;;;;;;11.07;3.67;;;22.30;99.90;;;;;;4976266;28;20053;-75
2023/07/13 06:43:08;;;;;;;10.70;3.30;;;22.20;99.90;;;;;;4976393;28;20134;-75
2023/07/13 06:45:47;;;;;;;10.23;3.28;;;22.20;99.90;;;;;;4976404;28;20047;-75
2023/07/13 06:48:13;;;;;;;10.57;3.20;;;22.30;99.90;;;;;;4976176;28;20047;-75
2023/07/13 06:50:39;;;;;;;13.30;3.72;;;22.50;99.90;;;;;;4976379;28;20042;-76
2023/07/13 06:53:05;;;;;;;10.52;3.00;;;22.70;99.90;;;;;;4976269;28;20043;-76
2023/07/13 06:55:31;;;;;;;10.90;3.25;;;22.60;99.90;;;;;;4975124;28;20475;-76
2023/07/13 06:57:57;;;;;;;9.60;3.03;;;22.60;99.90;;;;;;4975970;28;20042;-75
2023/07/13 07:00:23;;;;;;;11.55;3.10;;;22.80;99.90;;;;;;4976068;28;20090;-76
2023/07/13 07:02:49;;;;;;;12.02;3.30;;;23.10;99.90;;;;;;4975984;28;20094;-76
2023/07/13 07:05:15;;;;;;;10.00;3.33;;;23.30;99.90;;;;;;4975770;28;20038;-75
2023/07/13 07:07:41;;;;;;;11.40;3.00;;;23.20;99.90;;;;;;4974592;28;20039;-76
2023/07/13 07:10:07;;;;;;;9.00;3.25;;;23.20;99.90;;;;;;4975695;28;20139;-76
2023/07/13 07:12:33;;;;;;;10.73;3.08;;;23.30;99.90;;;;;;4974251;28;20086;-75
2023/07/13 07:14:59;;;;;;;9.80;3.20;;;23.10;99.90;;;;;;4975283;28;20525;-75
2023/07/13 07:17:25;;;;;;;8.68;3.00;;;22.90;99.90;;;;;;4973667;28;20121;-75
2023/07/13 07:19:53;;;;;;;9.65;3.38;;;22.70;99.90;;;;;;4957959;28;20034;-76
2023/07/13 07:22:20;;;;;;;10.40;3.05;;;22.30;99.90;;;;;;4975633;28;20042;-75
2023/07/13 07:24:46;;;;;;;10.00;3.03;;;22.00;99.90;;;;;;4975282;28;20038;-75
2023/07/13 07:27:12;;;;;;;11.82;3.50;;;21.70;99.90;;;;;;4941255;28;20051;-76
2023/07/13 07:29:38;;;;;;;9.10;3.33;;;21.40;99.90;;;;;;4972692;28;20506;-75
2023/07/13 07:32:04;;;;;;;9.18;2.72;;;21.40;99.90;;;;;;4990206;28;20039;-75
2023/07/13 07:34:31;;;;;;;10.98;3.10;;;21.30;99.90;;;;;;4975392;28;20085;-74
2023/07/13 07:37:00;;;;;;;12.75;3.47;;;21.10;99.90;;;;;;4975442;28;20043;-75
2023/07/13 07:39:26;;;;;;;11.07;3.20;;;21.00;99.90;;;;;;4974627;28;20074;-75
2023/07/13 07:41:52;;;;;;;9.55;3.33;;;20.80;99.90;;;;;;4975243;28;20070;-75
2023/07/13 07:44:18;;;;;;;12.82;3.53;;;20.50;99.90;;;;;;4975219;28;20050;-75
2023/07/13 07:46:44;;;;;;;13.45;3.53;;;20.60;99.90;;;;;;4975225;28;20039;-75
2023/07/13 07:49:10;;;;;;;11.68;2.92;;;20.60;99.90;;;;;;4975065;28;20038;-75
2023/07/13 07:51:36;;;;;;;10.40;3.40;;;20.70;99.90;;;;;;4975113;28;20123;-75
2023/07/13 07:54:03;;;;;;;11.45;3.38;;;20.70;99.90;;;;;;4973584;28;20050;-75
2023/07/13 07:56:28;;;;;;;12.98;3.45;;;20.70;99.90;;;;;;4973619;28;20126;-75
2023/07/13 07:58:54;;;;;;;11.00;3.70;;;20.60;99.90;;;;;;4973471;28;20078;-75
2023/07/13 08:01:20;;;;;;;11.15;3.40;;;20.50;99.90;;;;;;4973816;28;20569;-75
2023/07/13 08:03:45;;;;;;;13.07;3.80;;;20.50;99.90;;;;;;4974937;28;20070;-75
2023/07/13 08:06:14;;;;;;;10.05;3.20;;;20.50;99.90;;;;;;4973749;28;20046;-75
2023/07/13 08:08:40;;;;;;;11.70;3.55;;;20.60;99.90;;;;;;4974798;28;20487;-75
2023/07/13 08:11:08;;;;;;;12.18;3.58;;;20.60;99.90;;;;;;4974754;28;20102;-74
2023/07/13 08:13:34;;;;;;;13.50;3.97;;;20.70;99.90;;;;;;4974474;28;20079;-75
2023/07/13 08:16:00;;;;;;;12.73;3.47;;;20.70;99.90;;;;;;4974567;28;20038;-75
2023/07/13 08:18:28;;;;;;;12.48;3.70;;;20.80;99.90;;;;;;4973546;28;20544;-75
2023/07/13 08:20:56;;;;;;;12.25;3.70;;;20.80;99.90;;;;;;4973379;28;20046;-74
2023/07/13 08:23:23;;;;;;;12.40;3.90;;;20.80;99.90;;;;;;4974706;28;20140;-75
2023/07/13 08:25:52;;;;;;;11.35;4.03;;;20.80;99.90;;;;;;4974679;28;20062;-75
2023/07/13 08:28:20;;;;;;;12.90;4.55;;;20.80;99.90;;;;;;4973242;28;20495;-75
2023/07/13 08:30:48;;;;;;;11.82;4.05;;;20.90;99.90;;;;;;4974670;28;20121;-75
2023/07/13 08:33:19;;;;;;;15.45;4.45;;;21.00;99.90;;;;;;4974615;28;20042;-75
2023/07/13 08:35:49;;;;;;;15.00;4.60;;;20.90;99.90;;;;;;4973322;28;20491;-75
2023/07/13 08:38:16;;;;;;;14.07;4.90;;;20.90;99.90;;;;;;4974577;28;20061;-75
2023/07/13 08:40:42;;;;;;;14.57;4.47;;;20.80;99.90;;;;;;4974474;28;20043;-75
2023/07/13 08:43:18;;;;;;;12.10;4.13;;;20.90;99.90;;;;;;4973025;28;20038;-75
2023/07/13 08:45:48;;;;;;;11.57;4.30;;;20.90;99.90;;;;;;4974170;28;20039;-74
2023/07/13 08:48:20;;;;;;;13.85;4.32;;;21.10;99.90;;;;;;4974184;28;20050;-75
2023/07/13 08:50:58;;;;;;;14.48;4.70;;;21.10;99.90;;;;;;4976975;28;20046;-75
2023/07/13 08:53:32;;;;;;;13.93;4.30;;;21.20;99.90;;;;;;4978017;28;20049;-74
2023/07/13 08:55:59;;;;;;;12.35;3.92;;;21.40;99.90;;;;;;4978088;28;20042;-75
2023/07/13 08:58:29;;;;;;;12.45;4.28;;;21.50;99.90;;;;;;4978035;28;20050;-75
2023/07/13 09:01:21;;;;;;;16.00;4.85;;;21.40;99.90;;;;;;4978170;28;20053;-74
2023/07/13 09:03:59;;;;;;;12.75;4.38;;;21.30;99.90;;;;;;4976935;28;20043;-75
2023/07/13 09:06:35;;;;;;;15.05;4.50;;;21.10;99.90;;;;;;4960490;28;20046;-74
2023/07/13 09:09:18;;;;;;;8.85;2.90;;;20.50;99.90;;;;;;4976662;28;20057;-75
2023/07/13 09:11:46;;;;;;;7.97;3.10;;;20.00;99.90;;;;;;4976626;28;20047;-74
2023/07/13 09:14:34;;;;;;;8.02;2.50;;;19.70;99.90;;;;;;4976418;28;20074;-74
2023/07/13 09:17:05;;;;;;;7.35;2.40;;;19.40;99.90;;;;;;4977993;28;20047;-75
2023/07/13 09:19:35;;;;;;;7.85;2.90;;;19.10;99.90;;;;;;4977959;28;20157;-75
2023/07/13 09:22:04;;;;;;;8.27;2.78;;;18.90;99.90;;;;;;4977853;28;20078;-75
2023/07/13 09:24:50;;;;;;;9.73;3.45;;;18.80;99.90;;;;;;4976375;28;20082;-75
2023/07/13 09:27:21;;;;;;;9.40;3.50;;;18.60;99.90;;;;;;4977730;28;20134;-75
2023/07/13 09:30:13;;;;;;;6.63;2.38;;;18.40;99.90;;;;;;4977733;28;20102;-75
2023/07/13 09:32:43;;;;;;;7.10;2.63;;;18.10;99.90;;;;;;4970681;28;20127;-77
2023/07/13 09:35:14;;;;;;;7.70;2.60;;;17.70;99.90;;;;;;4977309;28;20046;-76
2023/07/13 09:37:41;;;;;;;6.27;2.20;;;17.30;99.90;;;;;;4976360;28;20042;-76
2023/07/13 09:40:17;;;;;;;6.68;2.30;;;17.10;99.90;;;;;;4977490;28;20284;-76
2023/07/13 09:42:43;;;;;;;6.75;2.30;;;16.90;99.90;;;;;;4977335;28;20035;-76
2023/07/13 09:45:09;;;;;;;7.35;2.17;;;16.90;99.90;;;;;;4977408;28;20169;-76
2023/07/13 09:47:39;;;;;;;6.60;2.30;;;16.80;99.90;;;;;;4976009;28;20051;-76
2023/07/13 09:50:18;;;;;;;5.95;2.13;;;16.70;99.90;;;;;;4975867;28;20047;-77
2023/07/13 09:52:47;;;;;;;5.35;2.30;;;16.60;99.90;;;;;;4977071;28;20521;-76
2023/07/13 09:55:28;;;;;;;7.00;2.60;;;16.40;99.90;;;;;;4975796;28;20043;-76
2023/07/13 09:57:54;;;;;;;5.47;2.50;;;16.50;99.90;;;;;;4976997;28;20126;-76
2023/07/13 10:00:30;;;;;;;5.22;2.00;;;16.40;99.90;;;;;;4977003;28;20190;-76
2023/07/13 10:03:03;;;;;;;4.68;1.63;;;16.30;99.90;;;;;;4974843;28;20054;-77
2023/07/13 10:05:41;;;;;;;5.18;1.90;;;16.20;99.90;;;;;;4975623;28;20046;-76
2023/07/13 10:08:27;;;;;;;5.00;2.03;;;16.20;99.90;;;;;;4959606;28;20038;-76
2023/07/13 10:11:02;;;;;;;4.57;1.90;;;16.30;99.90;;;;;;4975720;28;20046;-76
2023/07/13 10:13:54;;;;;;;6.20;1.88;;;16.30;99.90;;;;;;4976473;28;20054;-76
2023/07/13 10:16:20;;;;;;;5.60;1.85;;;16.50;99.90;;;;;;4975735;28;20062;-76
2023/07/13 10:18:53;;;;;;;6.57;1.90;;;16.70;99.90;;;;;;4975601;28;20050;-76
2023/07/13 10:21:26;;;;;;;4.43;1.80;;;17.00;99.90;;;;;;4975398;28;20046;-76
2023/07/13 10:23:58;;;;;;;4.20;1.88;;;17.20;99.90;;;;;;4976419;28;20039;-76
2023/07/13 10:26:30;;;;;;;4.65;1.85;;;17.70;99.90;;;;;;4976686;28;20042;-77
2023/07/13 10:29:00;;;;;;;4.95;2.10;;;18.10;99.90;;;;;;4975206;28;20051;-76
2023/07/13 10:31:26;;;;;;;3.65;1.65;;;18.40;99.90;;;;;;4975433;28;20046;-77
2023/07/13 10:33:52;;;;;;;4.22;1.60;;;18.80;99.90;;;;;;4975297;28;20054;-77
2023/07/13 10:36:33;;;;;;;3.72;1.70;;;19.00;99.90;;;;;;4976525;28;20035;-75
2023/07/13 10:39:02;;;;;;;4.57;1.60;;;19.30;99.90;;;;;;4975293;28;20108;-77
2023/07/13 10:41:33;;;;;;;5.13;2.00;;;19.60;99.90;;;;;;4975158;28;20039;-76
2023/07/13 10:44:00;;;;;;;5.32;2.30;;;19.90;99.90;;;;;;4976080;28;20035;-77
2023/07/13 10:46:28;;;;;;;5.95;2.45;;;20.10;99.90;;;;;;4976395;28;20117;-75
2023/07/13 10:49:01;;;;;;;5.60;2.20;;;20.50;99.90;;;;;;4976297;28;20101;-76
2023/07/13 10:51:28;;;;;;;5.32;2.50;;;20.70;99.90;;;;;;4976198;28;20057;-77
2023/07/13 10:54:17;;;;;;;6.25;2.60;;;20.80;99.90;;;;;;4976255;28;20034;-77
2023/07/13 10:56:44;;;;;;;7.70;2.88;;;20.90;99.90;;;;;;4974917;28;20050;-77
2023/07/13 10:59:16;;;;;;;6.40;2.80;;;21.00;99.90;;;;;;4958833;28;20042;-76
2023/07/13 11:02:07;;;;;;;6.43;3.10;;;21.10;99.90;;;;;;4975848;28;20055;-76
2023/07/13 11:04:45;;;;;;;7.35;3.20;;;21.30;99.90;;;;;;4974421;28;20186;-76
2023/07/13 11:07:18;;;;;;;8.43;3.78;;;21.60;99.90;;;;;;4974831;28;20041;-76
2023/07/13 11:09:53;;;;;;;6.35;3.63;;;21.80;99.90;;;;;;4975792;28;20051;-76
2023/07/13 11:12:26;;;;;;;7.80;3.50;;;21.90;99.90;;;;;;4975392;28;20038;-76
2023/07/13 11:14:54;;;;;;;8.98;3.53;;;22.00;99.90;;;;;;4974354;28;20050;-76
2023/07/13 11:17:37;;;;;;;8.68;3.53;;;22.10;99.90;;;;;;4974657;28;20078;-76
2023/07/13 11:20:13;;;;;;;8.20;3.10;;;22.20;99.90;;;;;;4975558;28;20047;-76
2023/07/13 11:22:50;;;;;;;6.82;3.03;;;22.50;99.90;;;;;;4974385;28;20043;-75
2023/07/13 11:25:29;;;;;;;6.78;2.75;;;22.70;99.90;;;;;;4974359;28;20050;-76
2023/07/13 11:28:15;;;;;;;8.48;3.05;;;22.90;99.90;;;;;;4975573;28;20039;-74
2023/07/13 11:30:59;;;;;;;9.13;3.53;;;22.80;99.90;;;;;;4975132;28;20112;-75
2023/07/13 11:33:40;;;;;;;8.27;3.03;;;22.60;99.90;;;;;;4975217;28;20046;-76
2023/07/13 11:36:13;;;;;;;8.48;3.70;;;22.50;99.90;;;;;;4975155;28;20122;-76
2023/07/13 11:38:49;;;;;;;7.97;3.60;;;22.50;99.90;;;;;;4974163;28;20078;-75
2023/07/13 11:41:19;;;;;;;5.82;2.88;;;22.10;99.90;;;;;;4973818;28;20050;-75
2023/07/13 11:43:54;;;;;;;5.03;2.40;;;21.60;99.90;;;;;;4973803;28;20053;-76
2023/07/13 11:46:27;;;;;;;6.07;2.53;;;21.30;99.90;;;;;;4974921;28;20139;-75
2023/07/13 11:48:54;;;;;;;5.25;2.45;;;20.80;99.90;;;;;;4974789;28;20089;-76
2023/07/13 11:51:26;;;;;;;5.95;2.83;;;20.50;99.90;;;;;;4973577;28;20054;-75
2023/07/13 11:53:56;;;;;;;5.80;2.50;;;20.20;99.90;;;;;;4973805;28;20506;-75
2023/07/13 11:56:24;;;;;;;5.50;2.20;;;19.90;99.90;;;;;;4975032;28;20118;-74
2023/07/13 11:58:52;;;;;;;4.65;2.15;;;19.70;99.90;;;;;;4974843;28;20126;-73
2023/07/13 12:01:23;;;;;;;4.97;2.15;;;19.60;99.90;;;;;;4974752;28;20082;-75
2023/07/13 12:03:49;;;;;;;5.25;2.40;;;19.40;99.90;;;;;;4957375;28;20050;-75
2023/07/13 12:06:30;;;;;;;5.75;2.40;;;19.40;99.90;;;;;;4974594;28;20096;-75
2023/07/13 12:09:21;;;;;;;5.07;2.40;;;19.50;99.90;;;;;;4974808;28;20501;-75
2023/07/13 12:11:46;;;;;;;6.63;2.67;;;19.60;99.90;;;;;;4973462;28;20039;-74
2023/07/13 12:14:17;;;;;;;6.38;2.63;;;20.00;99.90;;;;;;4972502;28;20058;-75
2023/07/13 12:16:44;;;;;;;6.88;2.80;;;20.30;99.90;;;;;;4973291;28;20051;-75
2023/07/13 12:19:27;;;;;;;6.50;2.90;;;20.40;99.90;;;;;;4973588;28;20073;-75
2023/07/13 12:21:59;;;;;;;7.47;2.85;;;20.40;99.90;;;;;;4974652;28;20046;-75
2023/07/13 12:24:26;;;;;;;6.43;2.80;;;20.20;99.90;;;;;;4974317;28;20039;-75
2023/07/13 12:26:55;;;;;;;6.78;2.85;;;20.20;99.90;;;;;;4973464;28;20145;-74
2023/07/13 12:29:21;;;;;;;6.72;2.80;;;20.20;99.90;;;;;;4974535;28;20073;-74
2023/07/13 12:31:49;;;;;;;6.70;2.90;;;20.30;99.90;;;;;;4973094;28;20038;-74
2023/07/13 12:34:21;;;;;;;5.97;2.95;;;20.50;99.90;;;;;;4974380;28;20034;-75
2023/07/13 12:36:55;;;;;;;7.72;2.83;;;20.60;99.90;;;;;;4973321;28;20069;-75
2023/07/13 12:39:38;;;;;;;6.95;2.65;;;20.60;99.90;;;;;;4958006;28;20051;-74
2023/07/13 12:42:27;;;;;;;7.57;2.80;;;20.50;99.90;;;;;;4973227;28;20105;-75
2023/07/13 12:44:57;;;;;;;7.72;3.10;;;20.50;99.90;;;;;;4974142;28;20049;-74
2023/07/13 12:47:23;;;;;;;7.10;3.17;;;20.60;99.90;;;;;;4957100;28;20050;-74
2023/07/13 12:49:53;;;;;;;8.02;3.13;;;20.80;99.90;;;;;;4974298;28;20135;-74